Argonia, Kansas
Current Conditions -  °F | °C
As of 3:53 AM on Saturday 29 Nov 2014 (Local Time) from KICT Reporting Station
Clear Clear  
Wind Chill: 42°   Ceiling: Unl
Heat Index: 47°   Visibility: 10mi
Dew Point: 41°   Wind: 10mph
Humidity: 80%   Direction: 160°SSE
Pressure: 29.65"   Gusts: NA
Location:  37.27°N, 97.77°W
Report Text: KICT 290953Z 16009KT 10SM CLR 08/05 A2965 RMK AO2 SLP037 T00830050
Loading
Personal Weather Stations






























Interactive Weather Map New forecast layout! Learn more

10-Day Weather Forecast

Advertisements
Track Severe Weather on mobile